This is the latest recevied weather packets stored in our database for station/object KD7MPG-3. If no packets are shown the sender has not sent any weather packets the latest 10 day(s).
| Time | Temp. | Humidity | Pressure | Rain* | Wind** | Luminosity | Snow |
|---|---|---|---|---|---|---|---|
| 1777573859 | 18.89° C | 68% | 1026.8 hPa | 0 mm | - | - | - |
| 1777573553 | 18.33° C | 68% | 1026.9 hPa | 0 mm | - | - | - |
| 1777573252 | 18.33° C | 66% | 1026.9 hPa | 0 mm | - | - | - |
| 1777572652 | 18.33° C | 66% | 1026.9 hPa | 0 mm | - | - | - |
| 1777572352 | 18.33° C | 66% | 1027 hPa | 0 mm | - | - | - |
| 1777571746 | 17.78° C | 69% | 1027 hPa | 0 mm | - | - | - |
| 1777571446 | 17.78° C | 67% | 1027 hPa | 0 mm | - | - | - |
| 1777571146 | 18.33° C | 67% | 1027.1 hPa | 0 mm | - | - | - |
| 1777570247 | 17.78° C | 69% | 1027 hPa | 0 mm | - | - | - |
| 1777569942 | 17.78° C | 69% | 1027.1 hPa | 0 mm | - | - | - |
| 1777569642 | 17.78° C | 70% | 1027.2 hPa | 0 mm | - | - | - |
| 1777569042 | 16.67° C | 72% | 1027.1 hPa | 0 mm | - | - | - |
| 1777568740 | 16.67° C | 71% | 1027.2 hPa | 0 mm | - | - | - |
| 1777567537 | 16.11° C | 74% | 1027.4 hPa | 0 mm | - | - | - |
| 1777567236 | 15.56° C | 75% | 1027.4 hPa | 0 mm | - | - | - |
| 1777566635 | 15.56° C | 77% | 1027.4 hPa | 0 mm | - | - | - |
| 1777566028 | 14.44° C | 79% | 1027.5 hPa | 0 mm | - | - | - |
| 1777564829 | 13.33° C | 85% | 1027.7 hPa | 0 mm | - | - | - |
| 1777563621 | 11.67° C | 89% | 1027.7 hPa | 0 mm | - | - | - |
| 1777563322 | 11.11° C | 89% | 1027.8 hPa | 0 mm | - | - | - |
| 1777563023 | 11.11° C | 90% | 1027.7 hPa | 0 mm | - | - | - |
| 1777562718 | 10.56° C | 91% | 1027.8 hPa | 0 mm | - | - | - |
| 1777562418 | 10.56° C | 91% | 1027.8 hPa | 0 mm | - | - | - |
| 1777559408 | 7.78° C | 92% | 1028 hPa | 0 mm | - | - | - |
| 1777558205 | 7.22° C | 93% | 1027.8 hPa | 0 mm | - | - | - |
* Rain latest hour (hover to see other rain measurements)
** Current wind speed in m/s (hover to see current wind gust speed)